Time;durP1;ratioP1;P1;durP2;ratioP2;P2;SDS_P1;SDS_P2;PMS_P1;PMS_P2;Temp;Humidity;BMP_temperature;BMP_pressure;BME280_temperature;BME280_humidity;BME280_pressure;Samples;Min_cycle;Max_cycle;Signal;HPM_P1;HPM_P2
2021/09/04 00:01:01;;;;;;;1999.90;999.90;;;;;;;12.28;92.86;95864.81;5032090;28;20198;-72
2021/09/04 00:03:28;;;;;;;1999.90;999.90;;;;;;;12.24;93.09;95869.09;5032411;28;20198;-73
2021/09/04 00:05:55;;;;;;;1999.90;999.90;;;;;;;12.26;93.16;95876.59;5031995;28;20576;-72
2021/09/04 00:08:22;;;;;;;1999.90;999.90;;;;;;;12.38;92.19;95866.44;5032427;28;20197;-73
2021/09/04 00:10:49;;;;;;;1999.90;999.90;;;;;;;12.44;91.78;95860.06;5032003;28;20225;-73
2021/09/04 00:13:20;;;;;;;1999.90;999.90;;;;;;;12.42;91.62;95868.16;5031462;28;20209;-73
2021/09/04 00:15:47;;;;;;;1999.90;999.90;;;;;;;12.33;92.12;95882.19;5032186;28;20198;-73
2021/09/04 00:18:14;;;;;;;1999.90;999.90;;;;;;;12.31;92.49;95884.31;5031803;28;20778;-73
2021/09/04 00:20:41;;;;;;;1999.90;999.90;;;;;;;12.29;92.79;95879.41;5031634;28;20205;-72
2021/09/04 00:23:08;;;;;;;1999.90;999.90;;;;;;;12.38;92.58;95875.03;5031643;28;20682;-74
2021/09/04 00:25:35;;;;;;;1999.90;999.90;;;;;;;12.39;92.65;95875.81;5031940;28;20300;-74
2021/09/04 00:28:03;;;;;;;1999.90;999.90;;;;;;;12.29;92.45;95881.25;5031292;28;20237;-75
2021/09/04 00:30:31;;;;;;;1999.90;999.90;;;;;;;12.16;92.11;95877.59;5032260;28;20218;-74
2021/09/04 00:32:59;;;;;;;1999.90;999.90;;;;;;;12.00;91.38;95884.94;5031470;28;20666;-72
2021/09/04 00:35:26;;;;;;;1999.90;999.90;;;;;;;11.84;91.23;95881.13;5031675;28;20251;-74
2021/09/04 00:37:53;;;;;;;1999.90;999.90;;;;;;;11.61;91.31;95882.06;5031444;28;20304;-73
2021/09/04 00:40:20;;;;;;;1999.90;999.90;;;;;;;11.50;91.24;95875.53;5031363;28;20198;-74
2021/09/04 00:42:47;;;;;;;1999.90;999.90;;;;;;;11.42;91.99;95873.56;5031361;28;20202;-72
2021/09/04 00:45:14;;;;;;;1999.90;999.90;;;;;;;11.48;93.79;95870.59;5031443;28;20197;-74
2021/09/04 00:47:58;;;;;;;1999.90;999.90;;;;;;;11.51;94.44;95875.22;5031353;28;20204;-73
2021/09/04 00:50:26;;;;;;;1999.90;999.90;;;;;;;11.52;94.35;95873.38;5031501;28;20283;-73
2021/09/04 00:52:54;;;;;;;1999.90;999.90;;;;;;;11.40;93.81;95868.69;5031250;28;20206;-74
2021/09/04 00:55:23;;;;;;;1999.90;999.90;;;;;;;11.41;94.04;95866.81;5031291;28;20224;-74
2021/09/04 00:57:51;;;;;;;1999.90;999.90;;;;;;;11.49;93.62;95864.34;5030401;28;20206;-73
2021/09/04 01:00:19;;;;;;;1999.90;999.90;;;;;;;11.50;93.68;95873.69;5030920;28;20198;-72
2021/09/04 01:02:46;;;;;;;1999.90;999.90;;;;;;;11.51;94.08;95864.03;5031077;28;20233;-73
2021/09/04 01:05:15;;;;;;;1999.90;999.90;;;;;;;11.49;94.62;95864.34;5030893;28;20202;-72
2021/09/04 01:07:43;;;;;;;1999.90;999.90;;;;;;;11.65;96.66;95860.38;5030759;28;20202;-73
2021/09/04 01:10:12;;;;;;;1999.90;999.90;;;;;;;11.36;93.71;95864.31;5031010;28;20221;-72
2021/09/04 01:12:39;;;;;;;1999.90;999.90;;;;;;;10.97;91.61;95865.53;5030687;28;20681;-73
2021/09/04 01:15:08;;;;;;;1999.90;999.90;;;;;;;10.97;93.01;95859.53;5030991;28;20205;-72
2021/09/04 01:17:36;;;;;;;1999.90;999.90;;;;;;;11.09;96.21;95852.06;5030693;28;20769;-73
2021/09/04 01:20:04;;;;;;;1999.90;999.90;;;;;;;11.14;96.42;95855.34;5031069;28;20223;-72
2021/09/04 01:22:33;;;;;;;1999.90;999.90;;;;;;;11.06;97.02;95856.00;5030743;28;20206;-72
2021/09/04 01:25:04;;;;;;;1999.90;999.90;;;;;;;11.02;97.53;95854.25;5030758;28;20202;-73
2021/09/04 01:27:34;;;;;;;1999.90;999.90;;;;;;;10.96;99.32;95850.97;5030458;28;20284;-72
2021/09/04 01:30:01;;;;;;;1999.90;999.90;;;;;;;10.99;98.83;95847.81;5030106;28;20230;-72
2021/09/04 01:32:29;;;;;;;1999.90;999.90;;;;;;;10.90;99.08;95841.75;5031288;28;20279;-72
2021/09/04 01:35:04;;;;;;;1999.90;999.90;;;;;;;10.91;99.03;95838.06;5030558;28;20241;-72
2021/09/04 01:37:32;;;;;;;1999.90;999.90;;;;;;;10.89;99.85;95837.59;5030311;28;20195;-72
2021/09/04 01:40:00;;;;;;;1999.90;999.90;;;;;;;10.89;100.00;95832.38;5030156;28;20204;-74
2021/09/04 01:42:27;;;;;;;1999.90;999.90;;;;;;;11.01;100.00;95834.53;5030215;28;20205;-73
2021/09/04 01:44:56;;;;;;;1999.90;999.90;;;;;;;11.00;100.00;95828.56;5029958;28;20696;-73
2021/09/04 01:47:26;;;;;;;1999.90;999.90;;;;;;;11.10;100.00;95825.78;5030276;28;20308;-72
2021/09/04 01:49:54;;;;;;;1999.90;999.90;;;;;;;11.17;99.69;95828.75;5030444;28;20205;-72
2021/09/04 01:52:22;;;;;;;1999.90;999.90;;;;;;;11.14;99.84;95836.38;5030759;28;20570;-72
2021/09/04 01:54:50;;;;;;;1999.90;999.90;;;;;;;11.11;99.60;95827.31;5030108;28;21035;-71
2021/09/04 01:57:19;;;;;;;1999.90;999.90;;;;;;;10.97;97.87;95830.94;5029966;28;20288;-72
2021/09/04 01:59:46;;;;;;;1999.90;999.90;;;;;;;10.50;96.78;95826.81;5029926;28;20268;-72
2021/09/04 02:02:15;;;;;;;1999.90;999.90;;;;;;;10.20;98.50;95834.00;5026745;28;20216;-72
2021/09/04 02:04:42;;;;;;;1999.90;999.90;;;;;;;10.23;98.46;95832.66;5027071;28;20210;-72
2021/09/04 02:07:09;;;;;;;1999.90;999.90;;;;;;;10.03;98.07;95830.31;5027898;28;20640;-71
2021/09/04 02:09:37;;;;;;;1999.90;999.90;;;;;;;10.06;97.67;95827.16;5027729;28;20733;-72
2021/09/04 02:12:05;;;;;;;1999.90;999.90;;;;;;;10.12;97.60;95820.81;5026954;28;20677;-72
2021/09/04 02:14:32;;;;;;;1999.90;999.90;;;;;;;10.16;97.73;95825.19;5029462;28;20197;-73
2021/09/04 02:16:59;;;;;;;1999.90;999.90;;;;;;;10.00;97.53;95828.28;5029549;28;20248;-72
2021/09/04 02:19:28;;;;;;;1999.90;999.90;;;;;;;9.90;96.53;95822.19;5029009;28;20209;-72
2021/09/04 02:21:55;;;;;;;1999.90;999.90;;;;;;;9.84;96.65;95814.72;5029318;28;20616;-72
2021/09/04 02:24:22;;;;;;;1999.90;999.90;;;;;;;9.81;96.96;95815.31;5029640;28;20198;-72
2021/09/04 02:26:49;;;;;;;1999.90;999.90;;;;;;;9.80;96.58;95821.53;5028893;28;20209;-73
2021/09/04 02:29:16;;;;;;;1999.90;999.90;;;;;;;9.74;97.16;95820.06;5021141;28;20226;-72
2021/09/04 02:31:44;;;;;;;1999.90;999.90;;;;;;;9.79;97.32;95817.41;5029138;28;20204;-72
2021/09/04 02:34:11;;;;;;;1999.90;999.90;;;;;;;9.64;97.20;95818.38;5015312;28;20206;-72
2021/09/04 02:36:39;;;;;;;1999.90;999.90;;;;;;;9.29;97.72;95819.56;5009668;28;20195;-72
2021/09/04 02:39:07;;;;;;;1999.90;999.90;;;;;;;9.34;98.65;95814.31;5009650;28;20682;-72
2021/09/04 02:41:34;;;;;;;1999.90;999.90;;;;;;;9.47;98.33;95812.84;5009397;28;20297;-71
2021/09/04 02:44:01;;;;;;;1999.90;999.90;;;;;;;9.56;98.15;95813.03;5012547;28;20205;-71
2021/09/04 02:46:29;;;;;;;1999.90;999.90;;;;;;;9.47;98.96;95811.03;5028981;28;20255;-72
2021/09/04 02:48:57;;;;;;;1999.90;999.90;;;;;;;9.38;99.75;95804.91;5028743;28;20205;-72
2021/09/04 02:51:24;;;;;;;1999.90;999.90;;;;;;;9.56;99.78;95794.88;5029166;28;20654;-73
2021/09/04 02:53:52;;;;;;;1999.90;999.90;;;;;;;9.47;100.00;95795.47;5028895;28;20293;-74
2021/09/04 02:56:20;;;;;;;1999.90;999.90;;;;;;;9.23;100.00;95805.09;5030496;28;20585;-73
2021/09/04 02:58:47;;;;;;;1999.90;999.90;;;;;;;9.27;100.00;95808.66;5028536;28;20201;-73
2021/09/04 03:01:15;;;;;;;1999.90;999.90;;;;;;;9.43;100.00;95810.06;5014600;28;20233;-75
2021/09/04 03:03:42;;;;;;;1999.90;999.90;;;;;;;9.60;100.00;95801.03;5019020;28;20326;-71
2021/09/04 03:06:09;;;;;;;1999.90;999.90;;;;;;;9.69;100.00;95799.34;5025532;28;20646;-72
2021/09/04 03:08:37;;;;;;;1999.90;999.90;;;;;;;9.55;100.00;95793.31;5026159;28;20642;-73
2021/09/04 03:11:06;;;;;;;1999.90;999.90;;;;;;;9.55;100.00;95795.91;5026878;28;20244;-72
2021/09/04 03:13:34;;;;;;;1999.90;999.90;;;;;;;9.65;100.00;95795.78;5027310;28;20193;-72
2021/09/04 03:16:01;;;;;;;1999.90;999.90;;;;;;;9.69;100.00;95799.34;5023656;28;20280;-71
2021/09/04 03:18:28;;;;;;;1999.90;999.90;;;;;;;9.73;98.97;95795.16;5028194;28;20233;-72
2021/09/04 03:20:56;;;;;;;1999.90;999.90;;;;;;;9.70;99.26;95790.53;5028448;28;20204;-72
2021/09/04 03:23:23;;;;;;;1999.90;999.90;;;;;;;9.72;99.71;95796.19;5032184;28;20201;-72
2021/09/04 03:25:50;;;;;;;1999.90;999.90;;;;;;;9.77;99.48;95802.09;5032263;28;20747;-71
2021/09/04 03:28:19;;;;;;;1999.90;999.90;;;;;;;9.70;99.03;95793.13;5031806;28;20324;-73
2021/09/04 03:30:46;;;;;;;1999.90;999.90;;;;;;;9.60;98.98;95794.03;5032162;28;20214;-71
2021/09/04 03:33:13;;;;;;;1999.90;999.90;;;;;;;9.66;99.10;95799.94;5031974;28;20212;-71
2021/09/04 03:35:40;;;;;;;1999.90;999.90;;;;;;;9.72;99.34;95798.78;5032179;28;20601;-72
2021/09/04 03:38:07;;;;;;;1999.90;999.90;;;;;;;9.75;98.53;95808.63;5032124;28;20288;-72
2021/09/04 03:40:35;;;;;;;1999.90;999.90;;;;;;;9.71;98.49;95808.44;5031659;28;20210;-73
2021/09/04 03:43:02;;;;;;;1999.90;999.90;;;;;;;9.60;98.99;95801.81;5030751;28;20225;-71
2021/09/04 03:45:30;;;;;;;1999.90;999.90;;;;;;;9.61;99.08;95803.38;5031447;28;20233;-73
2021/09/04 03:47:58;;;;;;;1999.90;999.90;;;;;;;9.58;98.34;95805.72;5026868;28;20228;-73
2021/09/04 03:50:25;;;;;;;1999.90;999.90;;;;;;;9.54;98.03;95828.88;5031341;28;20221;-72
2021/09/04 03:52:52;;;;;;;1999.90;999.90;;;;;;;9.42;96.65;95823.28;5031582;28;20208;-72
2021/09/04 03:55:19;;;;;;;1999.90;999.90;;;;;;;9.24;96.66;95831.81;5031884;28;20202;-72
2021/09/04 03:57:46;;;;;;;1999.90;999.90;;;;;;;9.16;96.20;95825.41;5029236;28;20198;-71
2021/09/04 04:00:14;;;;;;;1999.90;999.90;;;;;;;9.12;96.58;95824.41;5031507;28;20731;-71
2021/09/04 04:02:43;;;;;;;1999.90;999.90;;;;;;;9.13;97.67;95820.75;5029504;28;20238;-71
2021/09/04 04:05:10;;;;;;;1999.90;999.90;;;;;;;9.13;99.01;95825.16;5029381;28;20198;-72
2021/09/04 04:07:38;;;;;;;1999.90;999.90;;;;;;;9.41;97.85;95827.69;5025097;28;20212;-72
2021/09/04 04:10:06;;;;;;;1999.90;999.90;;;;;;;9.46;98.73;95827.63;5028726;28;20202;-71
2021/09/04 04:12:34;;;;;;;1999.90;999.90;;;;;;;9.55;98.28;95827.03;5031099;28;20208;-72
2021/09/04 04:15:01;;;;;;;1999.90;999.90;;;;;;;9.65;98.23;95824.31;5031332;28;20640;-73
2021/09/04 04:17:30;;;;;;;1999.90;999.90;;;;;;;9.63;99.11;95826.41;5031239;28;20229;-73
2021/09/04 04:19:59;;;;;;;1999.90;999.90;;;;;;;9.79;99.34;95832.97;5020272;28;20237;-73
2021/09/04 04:22:26;;;;;;;1999.90;999.90;;;;;;;10.06;98.81;95827.91;5028880;28;20217;-73
2021/09/04 04:24:53;;;;;;;1999.90;999.90;;;;;;;10.41;97.47;95831.09;5026061;28;20670;-74
2021/09/04 04:27:20;;;;;;;1999.90;999.90;;;;;;;10.77;95.98;95835.44;5030966;28;20225;-74
2021/09/04 04:29:48;;;;;;;1999.90;999.90;;;;;;;10.85;94.90;95834.03;5030050;28;20609;-74
2021/09/04 04:32:15;;;;;;;1999.90;999.90;;;;;;;11.03;93.85;95833.19;5030115;28;20314;-71
2021/09/04 04:34:42;;;;;;;1999.90;999.90;;;;;;;11.10;93.16;95843.22;5015223;28;20217;-70
2021/09/04 04:37:10;;;;;;;1999.90;999.90;;;;;;;11.16;92.91;95850.63;5024676;28;20213;-69
2021/09/04 04:39:38;;;;;;;1999.90;999.90;;;;;;;11.33;92.08;95854.50;5011299;28;20667;-68
2021/09/04 04:42:05;;;;;;;1999.90;999.90;;;;;;;11.32;92.76;95858.91;5011529;28;20222;-69
2021/09/04 04:44:32;;;;;;;1999.90;999.90;;;;;;;11.33;92.62;95841.47;5009359;28;20297;-69
2021/09/04 04:46:59;;;;;;;1999.90;999.90;;;;;;;11.29;94.14;95846.50;5008975;28;20202;-69
2021/09/04 04:49:27;;;;;;;1999.90;999.90;;;;;;;10.96;97.08;95845.78;5007024;28;20214;-69
2021/09/04 04:51:54;;;;;;;1999.90;999.90;;;;;;;10.79;99.50;95843.72;5007291;28;20312;-70
2021/09/04 04:54:22;;;;;;;1999.90;999.90;;;;;;;10.72;100.00;95838.13;5007833;28;20678;-69
2021/09/04 04:56:50;;;;;;;1999.90;999.90;;;;;;;10.74;100.00;95843.03;5008126;28;20210;-69
2021/09/04 04:59:17;;;;;;;1999.90;999.90;;;;;;;10.75;100.00;95847.19;5008231;28;20297;-69
2021/09/04 05:01:45;;;;;;;1999.90;999.90;;;;;;;11.06;100.00;95845.59;5010071;28;20194;-69
2021/09/04 05:04:12;;;;;;;1999.90;999.90;;;;;;;11.33;100.00;95850.06;5011389;28;20690;-69
2021/09/04 05:06:39;;;;;;;1999.90;999.90;;;;;;;11.61;100.00;95846.38;5011644;28;20199;-69
2021/09/04 05:09:06;;;;;;;1999.90;999.90;;;;;;;11.83;100.00;95848.34;5011407;28;20222;-69
2021/09/04 05:11:35;;;;;;;1999.90;999.90;;;;;;;12.12;98.24;95845.38;5011251;28;20231;-69
2021/09/04 05:14:02;;;;;;;1999.90;999.90;;;;;;;12.23;97.44;95845.94;5011295;28;20225;-69
2021/09/04 05:16:29;;;;;;;1999.90;999.90;;;;;;;12.38;98.96;95848.19;5011119;28;20206;-70
2021/09/04 05:18:56;;;;;;;1999.90;999.90;;;;;;;12.51;98.16;95836.94;5010847;28;20682;-70
2021/09/04 05:21:24;;;;;;;1999.90;999.90;;;;;;;12.54;96.23;95835.59;5010928;28;20285;-70
2021/09/04 05:23:51;;;;;;;1999.90;999.90;;;;;;;12.63;94.63;95829.34;5010735;28;20252;-69
2021/09/04 05:26:18;;;;;;;1999.90;999.90;;;;;;;12.79;95.27;95827.94;5011095;28;20241;-70
2021/09/04 05:28:47;;;;;;;1999.90;999.90;;;;;;;12.71;99.29;95820.03;5015437;28;20320;-70
2021/09/04 05:31:14;;;;;;;1999.90;999.90;;;;;;;12.67;100.00;95825.09;5030383;28;20222;-69
2021/09/04 05:33:41;;;;;;;1999.90;999.90;;;;;;;12.67;100.00;95827.69;5030054;28;20202;-68
2021/09/04 05:36:09;;;;;;;1999.90;999.90;;;;;;;12.72;100.00;95838.00;5030252;28;20208;-69
2021/09/04 05:38:36;;;;;;;1999.90;999.90;;;;;;;12.99;100.00;95836.31;5030243;28;20202;-69
2021/09/04 05:41:03;;;;;;;1999.90;999.90;;;;;;;13.11;98.64;95846.94;5030201;28;20202;-69
2021/09/04 05:43:31;;;;;;;1999.90;999.90;;;;;;;13.20;98.74;95847.81;5029965;28;20209;-69
2021/09/04 05:45:59;;;;;;;1999.90;999.90;;;;;;;13.37;98.27;95840.03;5030047;28;20194;-68
2021/09/04 05:48:27;;;;;;;1999.90;999.90;;;;;;;13.38;96.45;95836.34;5029967;28;20202;-69
2021/09/04 05:50:54;;;;;;;1999.90;999.90;;;;;;;13.47;96.93;95837.16;5030189;28;20225;-68
2021/09/04 05:53:21;;;;;;;1999.90;999.90;;;;;;;13.81;93.75;95844.31;5030242;28;20236;-68
2021/09/04 05:55:48;;;;;;;1999.90;999.90;;;;;;;13.74;93.47;95857.06;5030353;28;20201;-69
2021/09/04 05:58:15;;;;;;;1999.90;999.90;;;;;;;13.77;93.20;95851.97;5029888;28;20197;-69
2021/09/04 06:00:43;;;;;;;1999.90;999.90;;;;;;;13.79;92.99;95855.06;5030125;28;20220;-68
2021/09/04 06:03:11;;;;;;;1999.90;999.90;;;;;;;14.04;93.30;95858.81;5029784;28;20205;-69
2021/09/04 06:05:39;;;;;;;1999.90;999.90;;;;;;;14.16;92.06;95858.19;5029716;28;20212;-67
2021/09/04 06:08:06;;;;;;;1999.90;999.90;;;;;;;14.25;92.34;95853.72;5029621;28;20209;-68
2021/09/04 06:10:33;;;;;;;1999.90;999.90;;;;;;;14.34;91.88;95854.53;5029452;28;20201;-67
2021/09/04 06:13:00;;;;;;;1999.90;999.90;;;;;;;14.43;90.50;95851.94;5029724;28;20293;-68
2021/09/04 06:15:27;;;;;;;1999.90;999.90;;;;;;;14.59;89.95;95856.34;5029523;28;20590;-68
2021/09/04 06:17:55;;;;;;;1999.90;999.90;;;;;;;14.69;89.37;95862.38;5029824;28;20201;-68
2021/09/04 06:20:23;;;;;;;1999.90;999.90;;;;;;;14.73;88.36;95863.28;5029525;28;20198;-69
2021/09/04 06:22:51;;;;;;;1999.90;999.90;;;;;;;14.89;88.43;95865.13;5029647;28;20224;-69
2021/09/04 06:25:18;;;;;;;1999.90;999.90;;;;;;;15.02;88.54;95861.53;5029796;28;20673;-69
2021/09/04 06:27:47;;;;;;;1999.90;999.90;;;;;;;15.11;87.39;95856.28;5029324;28;20292;-69
2021/09/04 06:30:14;;;;;;;1999.90;999.90;;;;;;;15.50;86.18;95855.19;5029591;28;20821;-69
2021/09/04 06:32:41;;;;;;;1999.90;999.90;;;;;;;15.76;83.87;95849.88;5029349;28;20232;-70
2021/09/04 06:35:10;;;;;;;1999.90;999.90;;;;;;;15.76;84.05;95855.13;5029344;28;20218;-69
2021/09/04 06:37:39;;;;;;;1999.90;999.90;;;;;;;15.94;83.83;95853.91;5029380;28;20775;-69
2021/09/04 06:40:08;;;;;;;1999.90;999.90;;;;;;;16.11;83.13;95856.44;5029178;28;20206;-70
2021/09/04 06:42:35;;;;;;;1999.90;999.90;;;;;;;16.15;82.15;95852.09;5029301;28;20204;-69
2021/09/04 06:45:02;;;;;;;1999.90;999.90;;;;;;;16.19;82.84;95847.72;5029267;28;20275;-69
2021/09/04 06:47:29;;;;;;;1999.90;999.90;;;;;;;16.32;81.99;95862.47;5029502;28;20198;-70
2021/09/04 06:49:56;;;;;;;1999.90;999.90;;;;;;;16.62;80.70;95855.31;5028993;28;21010;-70
2021/09/04 06:52:24;;;;;;;1999.90;999.90;;;;;;;16.77;79.85;95851.31;5028867;28;20232;-70
2021/09/04 06:54:52;;;;;;;1999.90;999.90;;;;;;;16.83;79.70;95854.50;5028541;28;20233;-70
2021/09/04 06:57:19;;;;;;;1999.90;999.90;;;;;;;16.89;79.14;95846.09;5029007;28;20662;-69
2021/09/04 06:59:46;;;;;;;1999.90;999.90;;;;;;;17.13;77.04;95858.53;5028859;28;20202;-69
2021/09/04 07:02:14;;;;;;;1999.90;999.90;;;;;;;17.35;75.17;95854.72;5029047;28;20285;-70
2021/09/04 07:04:41;;;;;;;1999.90;999.90;;;;;;;17.27;75.90;95847.69;5028630;28;20670;-70
2021/09/04 07:07:08;;;;;;;1999.90;999.90;;;;;;;17.35;76.35;95844.19;5028730;28;20309;-69
2021/09/04 07:09:38;;;;;;;1999.90;999.90;;;;;;;17.60;75.15;95840.53;5028510;28;20280;-69
2021/09/04 07:12:07;;;;;;;1999.90;999.90;;;;;;;17.86;75.63;95837.53;5028866;28;20217;-69
2021/09/04 07:14:34;;;;;;;1999.90;999.90;;;;;;;18.00;74.05;95832.69;5029256;28;20279;-70
2021/09/04 07:17:01;;;;;;;1999.90;999.90;;;;;;;18.38;72.21;95837.56;5029362;28;20255;-70
2021/09/04 07:19:28;;;;;;;1999.90;999.90;;;;;;;18.41;71.36;95834.25;5028843;28;20224;-70
2021/09/04 07:21:56;;;;;;;1999.90;999.90;;;;;;;18.49;70.65;95830.69;5028901;28;20196;-70
2021/09/04 07:24:23;;;;;;;1999.90;999.90;;;;;;;18.72;69.41;95837.00;5028700;28;20293;-70
2021/09/04 07:26:50;;;;;;;1999.90;999.90;;;;;;;18.77;68.43;95834.13;5028799;28;20288;-70
2021/09/04 07:29:19;;;;;;;1999.90;999.90;;;;;;;18.98;68.19;95839.16;5028528;28;20234;-70
2021/09/04 07:31:47;;;;;;;1999.90;999.90;;;;;;;19.03;68.61;95840.81;5028582;28;20225;-69
2021/09/04 07:34:14;;;;;;;1999.90;999.90;;;;;;;18.82;67.17;95839.16;5028889;28;20229;-69
2021/09/04 07:36:41;;;;;;;1999.90;999.90;;;;;;;18.84;67.49;95831.66;5028769;28;20198;-70
2021/09/04 07:39:09;;;;;;;1999.90;999.90;;;;;;;18.97;68.48;95832.38;5028596;28;20308;-69
2021/09/04 07:41:36;;;;;;;1999.90;999.90;;;;;;;18.97;67.21;95837.66;5028864;28;20703;-69
2021/09/04 07:44:03;;;;;;;1999.90;999.90;;;;;;;19.37;66.83;95832.25;5028592;28;20241;-69
2021/09/04 07:46:32;;;;;;;1999.90;999.90;;;;;;;19.60;65.95;95835.81;5028552;28;20193;-69
2021/09/04 07:48:59;;;;;;;1999.90;999.90;;;;;;;19.47;66.40;95839.66;5028516;28;20670;-70
2021/09/04 07:51:26;;;;;;;1999.90;999.90;;;;;;;19.51;65.39;95855.56;5028892;28;20319;-69
2021/09/04 07:53:53;;;;;;;1999.90;999.90;;;;;;;19.60;66.46;95856.91;5029407;28;20233;-70
2021/09/04 07:56:21;;;;;;;1999.90;999.90;;;;;;;19.68;63.55;95847.28;5028585;28;20568;-69
2021/09/04 07:58:48;;;;;;;1999.90;999.90;;;;;;;19.67;65.13;95851.81;5028382;28;20201;-69
2021/09/04 08:01:15;;;;;;;1999.90;999.90;;;;;;;19.25;66.31;95848.13;5028494;28;20260;-68
2021/09/04 08:03:44;;;;;;;1999.90;999.90;;;;;;;19.53;65.36;95843.53;5028386;28;20194;-69
2021/09/04 08:06:11;;;;;;;1999.90;999.90;;;;;;;19.77;64.70;95851.25;5028594;28;20198;-69
2021/09/04 08:08:38;;;;;;;1999.90;999.90;;;;;;;19.97;62.61;95856.59;5031638;28;20205;-69
2021/09/04 08:11:05;;;;;;;1999.90;999.90;;;;;;;20.06;63.67;95854.53;5031507;28;20665;-69
2021/09/04 08:13:32;;;;;;;1999.90;999.90;;;;;;;20.11;64.22;95860.31;5031935;28;20291;-69
2021/09/04 08:16:00;;;;;;;1999.90;999.90;;;;;;;20.51;63.06;95857.41;5031967;28;20552;-70
2021/09/04 08:18:27;;;;;;;1999.90;999.90;;;;;;;20.72;63.26;95864.22;5031960;28;20206;-69
2021/09/04 08:20:55;;;;;;;1999.90;999.90;;;;;;;20.56;61.68;95862.41;5032134;28;20208;-69
2021/09/04 08:23:23;;;;;;;1999.90;999.90;;;;;;;20.65;61.71;95856.13;5031918;28;20190;-69
2021/09/04 08:25:50;;;;;;;1999.90;999.90;;;;;;;20.78;62.04;95852.22;5032044;28;20255;-69
2021/09/04 08:28:17;;;;;;;1999.90;999.90;;;;;;;20.80;60.67;95844.72;5031512;28;20233;-69
2021/09/04 08:30:45;;;;;;;1999.90;999.90;;;;;;;21.03;59.41;95837.59;5032034;28;20194;-70
2021/09/04 08:33:12;;;;;;;1999.90;999.90;;;;;;;21.09;60.62;95833.53;5031566;28;20275;-70
2021/09/04 08:35:39;;;;;;;1999.90;999.90;;;;;;;20.74;60.96;95838.19;5031855;28;20244;-69
2021/09/04 08:38:08;;;;;;;1999.90;999.90;;;;;;;20.92;58.86;95842.69;5031556;28;20644;-69
2021/09/04 08:40:39;;;;;;;1999.90;999.90;;;;;;;21.25;58.89;95844.03;5031410;28;20205;-69
2021/09/04 08:43:06;;;;;;;1999.90;999.90;;;;;;;21.45;57.40;95848.91;5031435;28;20217;-69
2021/09/04 08:45:34;;;;;;;1999.90;999.90;;;;;;;21.58;56.29;95854.00;5031214;28;20205;-69
2021/09/04 08:48:02;;;;;;;1999.90;999.90;;;;;;;21.66;57.05;95842.44;5031097;28;20204;-69
2021/09/04 08:50:29;;;;;;;1999.90;999.90;;;;;;;21.67;57.45;95838.66;5031151;28;20288;-69
2021/09/04 08:52:57;;;;;;;1999.90;999.90;;;;;;;21.40;57.13;95835.97;5031423;28;20272;-69
2021/09/04 08:55:25;;;;;;;1999.90;999.90;;;;;;;21.34;55.77;95832.09;5031564;28;20241;-68
2021/09/04 08:57:53;;;;;;;1999.90;999.90;;;;;;;21.73;54.49;95830.06;5031110;28;20256;-68
2021/09/04 09:00:29;;;;;;;1999.90;999.90;;;;;;;22.12;55.47;95835.91;5031059;28;20617;-69
2021/09/04 09:02:56;;;;;;;1999.90;999.90;;;;;;;22.25;53.54;95839.88;5031515;28;20190;-69
2021/09/04 09:05:24;;;;;;;1999.90;999.90;;;;;;;22.36;49.84;95837.38;5031201;28;20198;-70
2021/09/04 09:07:51;;;;;;;1999.90;999.90;;;;;;;22.56;47.60;95841.38;5031042;28;20225;-70
2021/09/04 09:10:35;;;;;;;1999.90;999.90;;;;;;;22.61;46.51;95842.94;5030884;28;20202;-69
2021/09/04 09:13:02;;;;;;;1999.90;999.90;;;;;;;22.50;46.95;95836.75;5030734;28;20213;-70
2021/09/04 09:15:32;;;;;;;1999.90;999.90;;;;;;;22.81;48.53;95830.31;5030650;28;20212;-69
2021/09/04 09:18:06;;;;;;;1999.90;999.90;;;;;;;22.93;48.18;95827.41;5030330;28;20220;-70
2021/09/04 09:20:34;;;;;;;1999.90;999.90;;;;;;;23.14;48.51;95817.78;5031031;28;20263;-70
2021/09/04 09:23:10;;;;;;;1999.90;999.90;;;;;;;23.37;49.29;95814.91;5030595;28;20234;-69
2021/09/04 09:25:40;;;;;;;1999.90;999.90;;;;;;;23.48;48.36;95810.50;5030469;28;20254;-69
2021/09/04 09:28:12;;;;;;;1999.90;999.90;;;;;;;23.05;47.69;95808.59;5030503;28;20713;-69
2021/09/04 09:30:41;;;;;;;1999.90;999.90;;;;;;;22.93;48.26;95800.91;5030525;28;20202;-68
2021/09/04 09:33:09;;;;;;;1999.90;999.90;;;;;;;23.22;48.07;95786.00;5030401;28;20221;-68
2021/09/04 09:35:40;;;;;;;1999.90;999.90;;;;;;;23.39;46.11;95790.69;5030397;28;20820;-68
2021/09/04 09:38:11;;;;;;;1999.90;999.90;;;;;;;23.64;45.10;95790.88;5030714;28;20190;-68
2021/09/04 09:40:41;;;;;;;1999.90;999.90;;;;;;;23.53;45.31;95785.50;5030232;28;20186;-68
2021/09/04 09:43:16;;;;;;;1999.90;999.90;;;;;;;23.13;47.11;95784.41;5030168;28;20194;-67
2021/09/04 09:45:46;;;;;;;1999.90;999.90;;;;;;;23.32;46.09;95780.78;5030193;28;20197;-68
2021/09/04 09:48:13;;;;;;;1999.90;999.90;;;;;;;23.26;46.92;95787.56;5030538;28;20196;-69
2021/09/04 09:50:40;;;;;;;1999.90;999.90;;;;;;;23.42;45.46;95780.09;5030302;28;20194;-69
2021/09/04 09:53:08;;;;;;;1999.90;999.90;;;;;;;23.53;45.09;95769.56;5029958;28;20276;-68
2021/09/04 09:55:35;;;;;;;1999.90;999.90;;;;;;;23.48;45.33;95751.34;5029975;28;20284;-68
2021/09/04 09:58:04;;;;;;;1999.90;999.90;;;;;;;23.77;42.36;95768.19;5029894;28;20198;-69
2021/09/04 10:00:32;;;;;;;1999.90;999.90;;;;;;;23.63;42.54;95762.81;5029829;28;20197;-69
2021/09/04 10:03:01;;;;;;;1999.90;999.90;;;;;;;23.73;44.64;95762.13;5022588;28;20207;-68
2021/09/04 10:05:31;;;;;;;1999.90;999.90;;;;;;;23.62;44.12;95756.75;5025759;28;20670;-68
2021/09/04 10:07:59;;;;;;;1999.90;999.90;;;;;;;23.89;42.59;95768.66;5030054;28;20194;-68
2021/09/04 10:10:28;;;;;;;1999.90;999.90;;;;;;;23.94;42.53;95763.00;5029401;28;20312;-68
2021/09/04 10:12:56;;;;;;;1999.90;999.90;;;;;;;24.08;41.85;95761.53;5029645;28;20252;-68
2021/09/04 10:15:28;;;;;;;1999.90;999.90;;;;;;;24.00;43.26;95763.41;5029963;28;20205;-68
2021/09/04 10:17:57;;;;;;;1999.90;999.90;;;;;;;24.20;43.39;95759.34;5029688;28;20704;-69
2021/09/04 10:20:25;;;;;;;1999.90;999.90;;;;;;;24.50;41.84;95752.97;5029619;28;20688;-68
2021/09/04 10:22:56;;;;;;;1999.90;999.90;;;;;;;24.62;43.11;95755.28;5029777;28;20204;-68
2021/09/04 10:25:23;;;;;;;1999.90;999.90;;;;;;;24.74;41.41;95744.28;5029518;28;20257;-69
2021/09/04 10:27:51;;;;;;;1999.90;999.90;;;;;;;24.90;40.68;95744.72;5029515;28;20233;-69
2021/09/04 10:30:25;;;;;;;1999.90;999.90;;;;;;;24.76;41.61;95740.09;5028690;28;20276;-68
2021/09/04 10:33:07;;;;;;;1999.90;999.90;;;;;;;24.84;42.07;95741.66;5029345;28;20252;-69
2021/09/04 10:35:51;;;;;;;1999.90;999.90;;;;;;;24.90;39.08;95736.00;5029568;28;20673;-69
2021/09/04 10:38:37;;;;;;;1999.90;999.90;;;;;;;24.86;40.10;95735.94;5029190;28;20202;-68
2021/09/04 10:41:22;;;;;;;1999.90;999.90;;;;;;;24.80;39.64;95727.59;5029273;28;20293;-69
2021/09/04 10:43:53;;;;;;;1999.90;999.90;;;;;;;24.33;39.62;95725.22;5029517;28;20559;-69
2021/09/04 10:46:22;;;;;;;1999.90;999.90;;;;;;;24.53;39.32;95728.31;5029196;28;20186;-68
2021/09/04 10:49:01;;;;;;;1999.90;999.90;;;;;;;24.68;38.85;95721.88;5029100;28;20757;-68
2021/09/04 10:51:46;;;;;;;1999.90;999.90;;;;;;;25.08;36.57;95723.44;5029365;28;20210;-67
2021/09/04 10:54:33;;;;;;;1999.90;999.90;;;;;;;25.08;35.16;95723.44;5029087;28;20771;-68
2021/09/04 10:57:15;;;;;;;1999.90;999.90;;;;;;;24.89;34.69;95723.81;5028860;28;20198;-69
2021/09/04 11:00:01;;;;;;;1999.90;999.90;;;;;;;24.76;36.44;95715.41;5029454;28;20276;-68